sensor_id;sensor_type;location;lat;lon;timestamp;P1;durP1;ratioP1;P2;durP2;ratioP2
51515;SDS011;37603;55.614;37.326;2024-03-22T00:05:25;18.3;;;11.2;;
51515;SDS011;37603;55.614;37.326;2024-03-22T00:11:24;17.7;;;11.3;;
51515;SDS011;37603;55.614;37.326;2024-03-22T00:17:24;19.8;;;11.5;;
51515;SDS011;37603;55.614;37.326;2024-03-22T00:23:22;19.9;;;11.8;;
51515;SDS011;37603;55.614;37.326;2024-03-22T00:29:20;22.4;;;12.4;;
51515;SDS011;37603;55.614;37.326;2024-03-22T00:35:19;23.3;;;12.7;;
51515;SDS011;37603;55.614;37.326;2024-03-22T00:41:18;16.9;;;7.1;;
51515;SDS011;37603;55.614;37.326;2024-03-22T00:47:16;26.1;;;14.9;;
51515;SDS011;37603;55.614;37.326;2024-03-22T00:53:15;25.1;;;14.4;;
51515;SDS011;37603;55.614;37.326;2024-03-22T00:59:14;22.3;;;14.4;;
51515;SDS011;37603;55.614;37.326;2024-03-22T01:05:13;15.1;;;6.7;;
51515;SDS011;37603;55.614;37.326;2024-03-22T01:11:11;20.7;;;13.2;;
51515;SDS011;37603;55.614;37.326;2024-03-22T01:17:10;23.4;;;14.5;;
51515;SDS011;37603;55.614;37.326;2024-03-22T01:23:09;21.5;;;13.5;;
51515;SDS011;37603;55.614;37.326;2024-03-22T01:29:07;21.2;;;13.2;;
51515;SDS011;37603;55.614;37.326;2024-03-22T01:35:07;20.6;;;6.9;;
51515;SDS011;37603;55.614;37.326;2024-03-22T01:41:05;21.8;;;13.1;;
51515;SDS011;37603;55.614;37.326;2024-03-22T01:47:04;20.4;;;12.7;;
51515;SDS011;37603;55.614;37.326;2024-03-22T01:53:03;18.9;;;12.6;;
51515;SDS011;37603;55.614;37.326;2024-03-22T01:59:01;19.2;;;7.2;;
51515;SDS011;37603;55.614;37.326;2024-03-22T02:05:05;20.0;;;12.8;;
51515;SDS011;37603;55.614;37.326;2024-03-22T02:10:58;12.8;;;6.7;;
51515;SDS011;37603;55.614;37.326;2024-03-22T02:16:57;16.7;;;6.8;;
51515;SDS011;37603;55.614;37.326;2024-03-22T02:22:56;13.4;;;6.4;;
51515;SDS011;37603;55.614;37.326;2024-03-22T02:28:55;22.5;;;13.2;;
51515;SDS011;37603;55.614;37.326;2024-03-22T02:34:53;15.0;;;6.2;;
51515;SDS011;37603;55.614;37.326;2024-03-22T02:40:52;21.2;;;13.6;;
51515;SDS011;37603;55.614;37.326;2024-03-22T02:46:51;14.4;;;7.0;;
51515;SDS011;37603;55.614;37.326;2024-03-22T02:52:49;17.4;;;7.2;;
51515;SDS011;37603;55.614;37.326;2024-03-22T02:58:48;14.6;;;7.1;;
51515;SDS011;37603;55.614;37.326;2024-03-22T03:04:47;15.8;;;6.7;;
51515;SDS011;37603;55.614;37.326;2024-03-22T03:10:45;18.4;;;13.7;;
51515;SDS011;37603;55.614;37.326;2024-03-22T03:16:44;14.5;;;6.7;;
51515;SDS011;37603;55.614;37.326;2024-03-22T03:22:43;24.1;;;14.9;;
51515;SDS011;37603;55.614;37.326;2024-03-22T03:28:42;23.0;;;14.6;;
51515;SDS011;37603;55.614;37.326;2024-03-22T03:34:40;15.2;;;7.4;;
51515;SDS011;37603;55.614;37.326;2024-03-22T03:40:39;19.6;;;7.7;;
51515;SDS011;37603;55.614;37.326;2024-03-22T03:46:38;20.6;;;15.8;;
51515;SDS011;37603;55.614;37.326;2024-03-22T03:52:36;24.8;;;15.4;;
51515;SDS011;37603;55.614;37.326;2024-03-22T03:58:35;15.4;;;7.1;;
51515;SDS011;37603;55.614;37.326;2024-03-22T04:04:34;23.1;;;16.3;;
51515;SDS011;37603;55.614;37.326;2024-03-22T04:10:32;25.8;;;16.7;;
51515;SDS011;37603;55.614;37.326;2024-03-22T04:16:31;17.3;;;8.2;;
51515;SDS011;37603;55.614;37.326;2024-03-22T04:22:30;24.4;;;16.4;;
51515;SDS011;37603;55.614;37.326;2024-03-22T04:28:29;18.7;;;9.3;;
51515;SDS011;37603;55.614;37.326;2024-03-22T04:34:27;16.7;;;8.5;;
51515;SDS011;37603;55.614;37.326;2024-03-22T04:40:26;19.0;;;8.6;;
51515;SDS011;37603;55.614;37.326;2024-03-22T04:46:24;18.1;;;8.7;;
51515;SDS011;37603;55.614;37.326;2024-03-22T04:52:23;27.6;;;18.7;;
51515;SDS011;37603;55.614;37.326;2024-03-22T04:58:22;20.3;;;10.1;;
51515;SDS011;37603;55.614;37.326;2024-03-22T05:04:21;32.1;;;20.7;;
51515;SDS011;37603;55.614;37.326;2024-03-22T05:10:19;28.1;;;19.0;;
51515;SDS011;37603;55.614;37.326;2024-03-22T05:16:18;27.2;;;19.2;;
51515;SDS011;37603;55.614;37.326;2024-03-22T05:22:17;28.7;;;19.0;;
51515;SDS011;37603;55.614;37.326;2024-03-22T05:28:15;30.5;;;18.8;;
51515;SDS011;37603;55.614;37.326;2024-03-22T05:34:14;24.4;;;18.1;;
51515;SDS011;37603;55.614;37.326;2024-03-22T05:40:13;29.9;;;19.1;;
51515;SDS011;37603;55.614;37.326;2024-03-22T05:46:12;27.2;;;17.7;;
51515;SDS011;37603;55.614;37.326;2024-03-22T05:52:11;25.1;;;17.2;;
51515;SDS011;37603;55.614;37.326;2024-03-22T05:58:09;27.8;;;16.9;;
51515;SDS011;37603;55.614;37.326;2024-03-22T06:04:08;23.3;;;15.9;;
51515;SDS011;37603;55.614;37.326;2024-03-22T06:10:08;22.3;;;16.1;;
51515;SDS011;37603;55.614;37.326;2024-03-22T06:16:06;21.3;;;14.8;;
51515;SDS011;37603;55.614;37.326;2024-03-22T06:22:05;20.7;;;14.6;;
51515;SDS011;37603;55.614;37.326;2024-03-22T06:28:05;22.4;;;14.3;;
51515;SDS011;37603;55.614;37.326;2024-03-22T06:34:04;18.5;;;13.0;;
51515;SDS011;37603;55.614;37.326;2024-03-22T06:40:03;17.7;;;12.2;;
51515;SDS011;37603;55.614;37.326;2024-03-22T06:46:02;15.1;;;11.3;;
51515;SDS011;37603;55.614;37.326;2024-03-22T06:52:02;17.0;;;11.8;;
51515;SDS011;37603;55.614;37.326;2024-03-22T06:58:01;16.5;;;12.2;;
51515;SDS011;37603;55.614;37.326;2024-03-22T07:04:01;16.3;;;11.3;;
51515;SDS011;37603;55.614;37.326;2024-03-22T07:10:00;18.1;;;11.8;;
51515;SDS011;37603;55.614;37.326;2024-03-22T07:16:00;15.6;;;11.4;;
51515;SDS011;37603;55.614;37.326;2024-03-22T07:21:59;17.3;;;11.7;;
51515;SDS011;37603;55.614;37.326;2024-03-22T07:27:59;16.3;;;10.8;;
51515;SDS011;37603;55.614;37.326;2024-03-22T07:33:58;16.4;;;11.5;;
51515;SDS011;37603;55.614;37.326;2024-03-22T07:39:58;15.4;;;10.1;;
51515;SDS011;37603;55.614;37.326;2024-03-22T07:45:57;16.1;;;12.4;;
51515;SDS011;37603;55.614;37.326;2024-03-22T07:51:57;19.0;;;11.4;;
51515;SDS011;37603;55.614;37.326;2024-03-22T07:57:56;15.6;;;9.9;;
51515;SDS011;37603;55.614;37.326;2024-03-22T08:03:56;17.8;;;11.2;;
51515;SDS011;37603;55.614;37.326;2024-03-22T08:15:55;20.5;;;12.4;;
51515;SDS011;37603;55.614;37.326;2024-03-22T08:21:55;17.5;;;11.8;;
51515;SDS011;37603;55.614;37.326;2024-03-22T08:27:55;17.6;;;11.6;;
51515;SDS011;37603;55.614;37.326;2024-03-22T08:33:54;13.4;;;9.7;;
51515;SDS011;37603;55.614;37.326;2024-03-22T08:39:54;11.0;;;7.2;;
51515;SDS011;37603;55.614;37.326;2024-03-22T08:45:53;10.5;;;5.9;;
51515;SDS011;37603;55.614;37.326;2024-03-22T08:51:52;10.0;;;5.7;;
51515;SDS011;37603;55.614;37.326;2024-03-22T08:57:52;10.1;;;5.5;;
51515;SDS011;37603;55.614;37.326;2024-03-22T09:03:51;7.8;;;5.3;;
51515;SDS011;37603;55.614;37.326;2024-03-22T09:09:50;10.5;;;5.9;;
51515;SDS011;37603;55.614;37.326;2024-03-22T09:15:55;10.4;;;5.9;;
51515;SDS011;37603;55.614;37.326;2024-03-22T09:21:49;11.3;;;6.0;;
51515;SDS011;37603;55.614;37.326;2024-03-22T09:27:48;10.4;;;6.0;;
51515;SDS011;37603;55.614;37.326;2024-03-22T09:33:48;11.7;;;6.3;;
51515;SDS011;37603;55.614;37.326;2024-03-22T09:39:46;11.3;;;6.6;;
51515;SDS011;37603;55.614;37.326;2024-03-22T09:45:46;12.3;;;6.3;;
51515;SDS011;37603;55.614;37.326;2024-03-22T09:51:45;10.1;;;6.3;;
51515;SDS011;37603;55.614;37.326;2024-03-22T09:57:44;10.3;;;6.4;;
51515;SDS011;37603;55.614;37.326;2024-03-22T10:03:43;12.1;;;6.2;;
51515;SDS011;37603;55.614;37.326;2024-03-22T10:09:42;10.8;;;6.2;;
51515;SDS011;37603;55.614;37.326;2024-03-22T10:15:42;9.9;;;5.9;;
51515;SDS011;37603;55.614;37.326;2024-03-22T10:21:41;9.8;;;6.3;;
51515;SDS011;37603;55.614;37.326;2024-03-22T10:27:40;10.4;;;6.0;;
51515;SDS011;37603;55.614;37.326;2024-03-22T10:33:40;12.2;;;6.2;;
51515;SDS011;37603;55.614;37.326;2024-03-22T10:39:38;11.1;;;6.1;;
51515;SDS011;37603;55.614;37.326;2024-03-22T10:45:38;10.8;;;6.7;;
51515;SDS011;37603;55.614;37.326;2024-03-22T10:51:37;11.7;;;6.9;;
51515;SDS011;37603;55.614;37.326;2024-03-22T10:57:36;12.1;;;7.1;;
51515;SDS011;37603;55.614;37.326;2024-03-22T11:03:36;9.3;;;5.4;;
51515;SDS011;37603;55.614;37.326;2024-03-22T11:09:34;6.9;;;5.0;;
51515;SDS011;37603;55.614;37.326;2024-03-22T11:15:34;8.8;;;5.1;;
51515;SDS011;37603;55.614;37.326;2024-03-22T11:21:33;8.1;;;4.8;;
51515;SDS011;37603;55.614;37.326;2024-03-22T11:27:32;9.0;;;5.5;;
51515;SDS011;37603;55.614;37.326;2024-03-22T11:33:31;9.4;;;5.3;;
51515;SDS011;37603;55.614;37.326;2024-03-22T11:39:30;7.8;;;5.5;;
51515;SDS011;37603;55.614;37.326;2024-03-22T11:45:30;10.3;;;5.9;;
51515;SDS011;37603;55.614;37.326;2024-03-22T11:51:29;9.6;;;5.3;;
51515;SDS011;37603;55.614;37.326;2024-03-22T11:57:28;8.9;;;4.8;;
51515;SDS011;37603;55.614;37.326;2024-03-22T12:03:28;7.9;;;4.7;;
51515;SDS011;37603;55.614;37.326;2024-03-22T12:09:26;9.0;;;4.9;;
51515;SDS011;37603;55.614;37.326;2024-03-22T12:15:26;8.8;;;4.7;;
51515;SDS011;37603;55.614;37.326;2024-03-22T12:21:25;8.0;;;4.3;;
51515;SDS011;37603;55.614;37.326;2024-03-22T12:27:24;6.9;;;3.8;;
51515;SDS011;37603;55.614;37.326;2024-03-22T12:33:23;7.8;;;4.1;;
51515;SDS011;37603;55.614;37.326;2024-03-22T12:39:22;8.0;;;4.0;;
51515;SDS011;37603;55.614;37.326;2024-03-22T12:45:21;7.4;;;4.2;;
51515;SDS011;37603;55.614;37.326;2024-03-22T12:51:21;7.1;;;4.0;;
51515;SDS011;37603;55.614;37.326;2024-03-22T12:57:20;5.7;;;3.5;;
51515;SDS011;37603;55.614;37.326;2024-03-22T13:03:19;5.8;;;3.7;;
51515;SDS011;37603;55.614;37.326;2024-03-22T13:09:18;4.8;;;3.2;;
51515;SDS011;37603;55.614;37.326;2024-03-22T13:15:17;6.8;;;3.7;;
51515;SDS011;37603;55.614;37.326;2024-03-22T13:21:16;7.2;;;3.6;;
51515;SDS011;37603;55.614;37.326;2024-03-22T13:27:16;4.4;;;3.1;;
51515;SDS011;37603;55.614;37.326;2024-03-22T13:33:15;6.5;;;3.4;;
51515;SDS011;37603;55.614;37.326;2024-03-22T13:39:14;7.5;;;3.7;;
51515;SDS011;37603;55.614;37.326;2024-03-22T13:45:13;6.8;;;4.5;;
51515;SDS011;37603;55.614;37.326;2024-03-22T13:51:12;7.0;;;4.3;;
51515;SDS011;37603;55.614;37.326;2024-03-22T13:57:11;8.7;;;4.3;;
51515;SDS011;37603;55.614;37.326;2024-03-22T14:03:11;9.2;;;4.2;;
51515;SDS011;37603;55.614;37.326;2024-03-22T14:09:10;7.6;;;3.9;;
51515;SDS011;37603;55.614;37.326;2024-03-22T14:15:09;7.4;;;4.1;;
51515;SDS011;37603;55.614;37.326;2024-03-22T14:21:08;6.2;;;4.0;;
51515;SDS011;37603;55.614;37.326;2024-03-22T14:27:07;8.3;;;4.1;;
51515;SDS011;37603;55.614;37.326;2024-03-22T14:33:06;7.7;;;4.2;;
51515;SDS011;37603;55.614;37.326;2024-03-22T14:39:05;7.4;;;4.7;;
51515;SDS011;37603;55.614;37.326;2024-03-22T14:45:05;7.1;;;4.7;;
51515;SDS011;37603;55.614;37.326;2024-03-22T14:51:04;7.9;;;5.1;;
51515;SDS011;37603;55.614;37.326;2024-03-22T14:57:03;7.4;;;4.8;;
51515;SDS011;37603;55.614;37.326;2024-03-22T15:03:02;9.1;;;4.9;;
51515;SDS011;37603;55.614;37.326;2024-03-22T15:09:01;7.0;;;4.9;;
51515;SDS011;37603;55.614;37.326;2024-03-22T15:15:00;7.8;;;4.9;;
51515;SDS011;37603;55.614;37.326;2024-03-22T15:20:59;9.0;;;4.6;;
51515;SDS011;37603;55.614;37.326;2024-03-22T15:26:58;9.8;;;5.5;;
51515;SDS011;37603;55.614;37.326;2024-03-22T15:32:58;12.5;;;6.4;;
51515;SDS011;37603;55.614;37.326;2024-03-22T15:38:57;11.7;;;6.3;;
51515;SDS011;37603;55.614;37.326;2024-03-22T15:44:56;11.5;;;6.2;;
51515;SDS011;37603;55.614;37.326;2024-03-22T15:50:55;12.2;;;7.0;;
51515;SDS011;37603;55.614;37.326;2024-03-22T15:56:54;11.7;;;7.0;;
51515;SDS011;37603;55.614;37.326;2024-03-22T16:02:53;10.5;;;7.2;;
51515;SDS011;37603;55.614;37.326;2024-03-22T16:08:52;13.8;;;7.6;;
51515;SDS011;37603;55.614;37.326;2024-03-22T16:14:51;17.7;;;9.4;;
51515;SDS011;37603;55.614;37.326;2024-03-22T16:20:50;15.9;;;9.4;;
51515;SDS011;37603;55.614;37.326;2024-03-22T16:26:49;16.1;;;9.4;;
51515;SDS011;37603;55.614;37.326;2024-03-22T16:32:48;14.0;;;8.3;;
51515;SDS011;37603;55.614;37.326;2024-03-22T16:38:47;18.6;;;9.7;;
51515;SDS011;37603;55.614;37.326;2024-03-22T16:44:46;17.7;;;8.8;;
51515;SDS011;37603;55.614;37.326;2024-03-22T16:50:45;18.0;;;10.0;;
51515;SDS011;37603;55.614;37.326;2024-03-22T16:56:44;14.5;;;9.2;;
51515;SDS011;37603;55.614;37.326;2024-03-22T17:02:43;15.9;;;9.3;;
51515;SDS011;37603;55.614;37.326;2024-03-22T17:08:42;13.6;;;9.6;;
51515;SDS011;37603;55.614;37.326;2024-03-22T17:14:41;15.8;;;9.3;;
51515;SDS011;37603;55.614;37.326;2024-03-22T17:26:39;15.4;;;9.8;;
51515;SDS011;37603;55.614;37.326;2024-03-22T17:32:38;16.3;;;9.8;;
51515;SDS011;37603;55.614;37.326;2024-03-22T17:38:37;15.2;;;9.8;;
51515;SDS011;37603;55.614;37.326;2024-03-22T17:44:36;16.2;;;9.8;;
51515;SDS011;37603;55.614;37.326;2024-03-22T17:50:36;14.3;;;9.1;;
51515;SDS011;37603;55.614;37.326;2024-03-22T17:56:34;15.3;;;9.4;;
51515;SDS011;37603;55.614;37.326;2024-03-22T18:02:33;15.2;;;9.2;;
51515;SDS011;37603;55.614;37.326;2024-03-22T18:08:32;13.2;;;9.0;;
51515;SDS011;37603;55.614;37.326;2024-03-22T18:14:31;12.7;;;8.9;;
51515;SDS011;37603;55.614;37.326;2024-03-22T18:20:30;13.7;;;8.6;;
51515;SDS011;37603;55.614;37.326;2024-03-22T18:26:29;13.9;;;8.7;;
51515;SDS011;37603;55.614;37.326;2024-03-22T18:32:28;12.8;;;8.6;;
51515;SDS011;37603;55.614;37.326;2024-03-22T18:38:27;14.6;;;8.5;;
51515;SDS011;37603;55.614;37.326;2024-03-22T18:44:26;13.5;;;8.2;;
51515;SDS011;37603;55.614;37.326;2024-03-22T18:50:25;13.6;;;8.4;;
51515;SDS011;37603;55.614;37.326;2024-03-22T18:56:24;12.6;;;8.7;;
51515;SDS011;37603;55.614;37.326;2024-03-22T19:02:23;13.0;;;8.5;;
51515;SDS011;37603;55.614;37.326;2024-03-22T19:08:21;14.5;;;9.1;;
51515;SDS011;37603;55.614;37.326;2024-03-22T19:14:20;13.4;;;9.0;;
51515;SDS011;37603;55.614;37.326;2024-03-22T19:20:19;13.6;;;9.3;;
51515;SDS011;37603;55.614;37.326;2024-03-22T19:26:18;16.7;;;10.3;;
51515;SDS011;37603;55.614;37.326;2024-03-22T19:32:17;14.2;;;9.9;;
51515;SDS011;37603;55.614;37.326;2024-03-22T19:38:16;14.8;;;10.7;;
51515;SDS011;37603;55.614;37.326;2024-03-22T19:44:15;15.3;;;10.8;;
51515;SDS011;37603;55.614;37.326;2024-03-22T19:50:14;16.5;;;11.6;;
51515;SDS011;37603;55.614;37.326;2024-03-22T19:56:13;18.1;;;12.2;;
51515;SDS011;37603;55.614;37.326;2024-03-22T20:02:12;17.2;;;12.3;;
51515;SDS011;37603;55.614;37.326;2024-03-22T20:08:11;19.2;;;13.5;;
51515;SDS011;37603;55.614;37.326;2024-03-22T20:14:10;21.4;;;14.5;;
51515;SDS011;37603;55.614;37.326;2024-03-22T20:20:09;20.5;;;14.8;;
51515;SDS011;37603;55.614;37.326;2024-03-22T20:26:07;22.8;;;15.5;;
51515;SDS011;37603;55.614;37.326;2024-03-22T20:32:06;22.9;;;16.8;;
51515;SDS011;37603;55.614;37.326;2024-03-22T20:38:05;23.7;;;17.1;;
